Time;durP1;ratioP1;P1;durP2;ratioP2;P2;SDS_P1;SDS_P2;PMS_P1;PMS_P2;Temp;Humidity;BMP_temperature;BMP_pressure;BME280_temperature;BME280_humidity;BME280_pressure;Samples;Min_cycle;Max_cycle;Signal;HPM_P1;HPM_P2
2022/09/27 00:01:35;;;;;;;1.20;1.10;;;;;;;2.59;100.00;98908.00;4915892;29;20063;-81
2022/09/27 00:04:02;;;;;;;1.10;1.10;;;;;;;2.46;100.00;98903.41;4917393;29;20054;-82
2022/09/27 00:06:30;;;;;;;1.15;1.10;;;;;;;2.38;100.00;98900.84;4917527;29;20567;-82
2022/09/27 00:08:57;;;;;;;0.82;0.82;;;;;;;2.31;100.00;98900.00;4917902;29;20058;-81
2022/09/27 00:11:27;;;;;;;1.00;1.00;;;;;;;2.25;100.00;98903.44;4900715;29;20082;-81
2022/09/27 00:13:58;;;;;;;1.05;1.05;;;;;;;2.24;100.00;98910.59;4917409;29;20508;-80
2022/09/27 00:16:30;;;;;;;0.90;0.90;;;;;;;2.24;100.00;98915.13;4917425;29;20568;-81
2022/09/27 00:18:59;;;;;;;0.80;0.80;;;;;;;2.38;100.00;98911.50;4916335;29;20099;-80
2022/09/27 00:21:27;;;;;;;0.80;0.80;;;;;;;2.36;100.00;98903.72;4916782;29;20052;-80
2022/09/27 00:23:54;;;;;;;0.80;0.80;;;;;;;2.27;100.00;98904.06;4900167;29;20106;-81
2022/09/27 00:26:21;;;;;;;0.80;0.80;;;;;;;2.17;100.00;98897.22;4900250;29;20086;-81
2022/09/27 00:28:48;;;;;;;0.80;0.80;;;;;;;2.10;100.00;98895.53;4917226;29;20483;-82
2022/09/27 00:31:28;;;;;;;0.80;0.80;;;;;;;2.03;100.00;98900.00;4917382;29;20135;-82
2022/09/27 00:33:58;;;;;;;0.80;0.80;;;;;;;1.95;100.00;98896.44;4884795;29;20154;-81
2022/09/27 00:36:26;;;;;;;0.90;0.90;;;;;;;1.99;100.00;98902.19;4917118;29;20052;-81
2022/09/27 00:38:54;;;;;;;0.90;0.90;;;;;;;2.04;100.00;98902.44;4917914;29;20058;-82
2022/09/27 00:41:24;;;;;;;0.80;0.80;;;;;;;2.01;100.00;98894.84;4917475;29;20518;-81
2022/09/27 00:43:55;;;;;;;0.80;0.80;;;;;;;1.95;100.00;98900.97;4917478;29;20060;-83
2022/09/27 00:46:36;;;;;;;1.00;1.00;;;;;;;1.98;100.00;98905.06;4912078;29;20048;-81
2022/09/27 00:49:11;;;;;;;1.00;1.00;;;;;;;1.95;100.00;98914.25;4899286;29;20044;-82
2022/09/27 00:51:39;;;;;;;0.80;0.80;;;;;;;1.92;100.00;98914.63;4869196;29;20084;-81
2022/09/27 00:54:08;;;;;;;0.80;0.80;;;;;;;1.87;100.00;98909.03;4898442;29;20050;-82
2022/09/27 00:56:35;;;;;;;0.80;0.80;;;;;;;1.82;100.00;98904.28;4915743;29;20052;-82
2022/09/27 00:59:12;;;;;;;0.90;0.90;;;;;;;1.82;100.00;98911.47;4922328;29;20055;-83
2022/09/27 01:01:39;;;;;;;0.95;0.95;;;;;;;1.87;100.00;98915.19;4915558;29;20496;-82
2022/09/27 01:04:09;;;;;;;0.90;0.90;;;;;;;1.92;100.00;98915.47;4897712;29;20515;-82
2022/09/27 01:06:37;;;;;;;0.90;0.90;;;;;;;1.85;100.00;98911.06;4914514;29;20048;-83
2022/09/27 01:09:09;;;;;;;0.80;0.80;;;;;;;1.74;100.00;98912.41;4896413;29;20049;-80
2022/09/27 01:11:46;;;;;;;0.77;0.77;;;;;;;1.68;100.00;98921.97;4880345;29;20192;-81
2022/09/27 01:14:32;;;;;;;0.85;0.85;;;;;;;1.65;100.00;98921.53;4895820;29;20434;-80
2022/09/27 01:17:26;;;;;;;0.80;0.80;;;;;;;1.59;100.00;98923.09;4897048;29;20059;-80
2022/09/27 01:20:18;;;;;;;1.00;1.00;;;;;;;1.54;100.00;98916.69;4899860;29;20146;-81
2022/09/27 01:23:07;;;;;;;0.90;0.90;;;;;;;1.53;100.00;98915.88;4917785;29;20162;-82
2022/09/27 01:26:05;;;;;;;1.00;1.00;;;;;;;1.49;100.00;98917.25;4917925;29;20083;-81
2022/09/27 01:29:12;;;;;;;0.80;0.80;;;;;;;1.45;100.00;98921.34;4932761;29;20103;-81
2022/09/27 01:31:44;;;;;;;1.00;1.00;;;;;;;1.46;100.00;98925.63;4911773;29;20048;-83
2022/09/27 01:34:40;;;;;;;0.90;0.90;;;;;;;1.47;100.00;98919.31;4916293;29;20103;-81
2022/09/27 01:37:35;;;;;;;0.90;0.90;;;;;;;1.47;100.00;98919.31;4899161;29;20079;-80
2022/09/27 01:40:15;;;;;;;0.90;0.90;;;;;;;1.42;100.00;98922.53;4916138;29;20063;-81
2022/09/27 01:43:15;;;;;;;0.90;0.90;;;;;;;1.35;100.00;98926.13;4882769;29;20052;-81
2022/09/27 01:46:04;;;;;;;0.90;0.90;;;;;;;1.28;100.00;98928.69;4899607;29;20063;-82
2022/09/27 01:48:50;;;;;;;0.90;0.90;;;;;;;1.18;100.00;98923.66;4901946;29;20052;-81
2022/09/27 01:51:21;;;;;;;0.90;0.90;;;;;;;1.16;100.00;98928.34;4899190;29;20052;-81
2022/09/27 01:53:51;;;;;;;0.90;0.90;;;;;;;1.17;100.00;98927.34;4914415;29;20072;-83
2022/09/27 01:56:40;;;;;;;0.85;0.85;;;;;;;1.23;100.00;98913.28;4914411;29;20054;-81
2022/09/27 01:59:14;;;;;;;0.90;0.90;;;;;;;1.31;100.00;98917.69;4898869;29;20107;-82
2022/09/27 02:01:51;;;;;;;1.20;1.10;;;;;;;1.40;100.00;98919.22;4914493;29;20078;-82
2022/09/27 02:04:23;;;;;;;1.00;1.00;;;;;;;1.51;100.00;98908.09;4898095;29;20044;-82
2022/09/27 02:07:18;;;;;;;;;;;;;;;1.65;100.00;98916.22;4914801;29;20071;-81
2022/09/27 02:09:53;;;;;;;1.60;1.50;;;;;;;1.74;100.00;98913.22;4898813;29;19934;-80
2022/09/27 02:12:30;;;;;;;1.38;1.27;;;;;;;1.77;100.00;98913.88;4882714;29;20055;-82
2022/09/27 02:15:06;;;;;;;1.40;1.30;;;;;;;1.79;100.00;98910.00;4898758;29;20056;-80
2022/09/27 02:17:52;;;;;;;1.70;1.60;;;;;;;1.84;100.00;98912.91;4914461;29;20060;-82
2022/09/27 02:20:40;;;;;;;1.40;1.30;;;;;;;1.92;100.00;98902.16;4914068;29;20063;-82
2022/09/27 02:23:20;;;;;;;1.50;1.40;;;;;;;1.96;100.00;98897.28;4882582;29;20044;-81
2022/09/27 02:26:05;;;;;;;1.58;1.42;;;;;;;1.93;100.00;98897.66;4883881;29;20052;-81
2022/09/27 02:29:15;;;;;;;1.00;1.00;;;;;;;1.92;100.00;98906.63;4883137;29;20052;-81
2022/09/27 02:31:50;;;;;;;1.60;1.50;;;;;;;1.90;100.00;98906.00;4886466;29;20064;-81
2022/09/27 02:34:28;;;;;;;1.27;1.17;;;;;;;1.83;100.00;98907.81;4913774;29;20048;-82
2022/09/27 02:36:55;;;;;;;1.40;1.30;;;;;;;1.77;100.00;98906.69;4898482;29;20424;-82
2022/09/27 02:39:23;;;;;;;1.38;1.27;;;;;;;1.78;100.00;98911.03;4898042;29;20136;-82
2022/09/27 02:42:00;;;;;;;1.27;1.17;;;;;;;1.73;100.00;98908.94;4898535;29;20048;-81
2022/09/27 02:44:28;;;;;;;1.23;1.20;;;;;;;1.72;100.00;98911.78;4883993;29;20468;-83
2022/09/27 02:47:01;;;;;;;1.10;1.10;;;;;;;1.68;100.00;98906.00;4868494;29;20520;-82
2022/09/27 02:49:50;;;;;;;1.10;1.10;;;;;;;1.62;100.00;98908.59;4913811;29;20060;-82
2022/09/27 02:53:09;;;;;;;1.13;1.10;;;;;;;1.58;100.00;98916.16;4899691;29;20056;-81
2022/09/27 02:56:02;;;;;;;1.40;1.30;;;;;;;1.50;100.00;98914.44;4883486;29;20060;-81
2022/09/27 02:59:15;;;;;;;1.48;1.38;;;;;;;1.46;100.00;98918.47;4915526;29;20055;-81
2022/09/27 03:02:16;;;;;;;0.90;0.90;;;;;;;1.39;100.00;98922.06;4884990;29;20052;-81
2022/09/27 03:05:05;;;;;;;1.17;1.08;;;;;;;1.28;100.00;98910.91;4914133;29;20261;-82
2022/09/27 03:07:33;;;;;;;1.00;1.00;;;;;;;1.30;100.00;98922.19;4898240;29;20476;-82
2022/09/27 03:10:00;;;;;;;1.00;1.00;;;;;;;1.33;100.00;98913.00;4898750;29;20056;-82
2022/09/27 03:12:29;;;;;;;0.80;0.80;;;;;;;1.37;100.00;98914.28;4882749;29;20056;-81
2022/09/27 03:14:59;;;;;;;0.90;0.90;;;;;;;1.40;100.00;98905.13;4913976;29;20112;-83
2022/09/27 03:17:52;;;;;;;0.90;0.90;;;;;;;1.34;100.00;98914.63;4911972;29;20060;-82
2022/09/27 03:20:39;;;;;;;0.88;0.88;;;;;;;1.33;100.00;98917.50;4868954;29;20052;-81
2022/09/27 03:23:08;;;;;;;0.90;0.90;;;;;;;1.25;100.00;98913.13;4897879;29;20052;-81
2022/09/27 03:25:36;;;;;;;0.80;0.80;;;;;;;1.23;100.00;98913.28;4914809;29;20087;-81
2022/09/27 03:28:03;;;;;;;0.90;0.90;;;;;;;1.23;100.00;98917.78;4913724;29;20044;-80
2022/09/27 03:30:31;;;;;;;1.00;1.00;;;;;;;1.25;100.00;98919.25;4915202;29;20115;-83
2022/09/27 03:32:58;;;;;;;1.00;1.00;;;;;;;1.30;100.00;98919.53;4915462;29;20056;-81
2022/09/27 03:36:03;;;;;;;0.85;0.85;;;;;;;1.21;100.00;98925.13;4878535;29;20057;-81
2022/09/27 03:38:30;;;;;;;0.90;0.90;;;;;;;1.18;100.00;98923.66;4862484;29;20128;-83
2022/09/27 03:40:57;;;;;;;0.90;0.90;;;;;;;1.12;100.00;98913.78;4862711;29;20052;-81
2022/09/27 03:43:25;;;;;;;0.90;0.90;;;;;;;1.08;100.00;98912.50;4862528;29;20057;-81
2022/09/27 03:45:56;;;;;;;0.90;0.90;;;;;;;1.03;100.00;98912.22;4878164;29;20424;-81
2022/09/27 03:48:23;;;;;;;0.90;0.90;;;;;;;1.05;100.00;98928.81;4862080;29;20496;-82
2022/09/27 03:50:54;;;;;;;0.90;0.90;;;;;;;1.05;100.00;98932.31;4862596;29;20109;-82
2022/09/27 03:53:21;;;;;;;0.90;0.90;;;;;;;1.05;100.00;98932.31;4861934;29;20568;-82
2022/09/27 03:55:48;;;;;;;0.90;0.90;;;;;;;1.07;100.00;98929.47;4862272;29;20100;-81
2022/09/27 03:58:15;;;;;;;1.00;1.00;;;;;;;1.08;100.00;98931.09;4862028;29;20053;-82
2022/09/27 04:00:42;;;;;;;0.90;0.90;;;;;;;1.08;100.00;98931.09;4877813;29;20045;-81
2022/09/27 04:03:10;;;;;;;0.90;0.90;;;;;;;1.08;100.00;98936.41;4846844;29;20560;-80
2022/09/27 04:05:59;;;;;;;0.85;0.85;;;;;;;1.06;100.00;98941.09;4881919;29;20146;-81
2022/09/27 04:08:35;;;;;;;0.90;0.90;;;;;;;1.08;100.00;98941.75;4900063;29;20222;-81
2022/09/27 04:11:05;;;;;;;0.90;0.90;;;;;;;1.16;100.00;98932.84;4900166;29;20343;-81
2022/09/27 04:13:34;;;;;;;0.90;0.90;;;;;;;1.21;100.00;98941.91;4899730;29;20512;-81
2022/09/27 04:16:01;;;;;;;0.90;0.90;;;;;;;1.24;100.00;98936.22;4915879;29;20059;-81
2022/09/27 04:18:28;;;;;;;0.90;0.90;;;;;;;1.27;100.00;98935.03;4884191;29;20083;-81
2022/09/27 04:21:14;;;;;;;0.90;0.90;;;;;;;1.28;100.00;98932.16;4916896;29;20161;-82
2022/09/27 04:23:48;;;;;;;0.90;0.90;;;;;;;1.33;100.00;98944.09;4900109;29;20063;-81
2022/09/27 04:26:18;;;;;;;0.90;0.90;;;;;;;1.37;100.00;98948.00;4915506;29;20048;-82
2022/09/27 04:28:53;;;;;;;0.90;0.90;;;;;;;1.45;100.00;98948.75;4915351;29;20139;-80
2022/09/27 04:31:21;;;;;;;0.80;0.80;;;;;;;1.53;100.00;98942.50;4914844;29;20058;-81
2022/09/27 04:34:12;;;;;;;0.80;0.80;;;;;;;1.62;100.00;98946.69;4911051;29;20420;-82
2022/09/27 04:36:39;;;;;;;0.90;0.90;;;;;;;1.70;100.00;98953.72;4899660;29;20048;-81
2022/09/27 04:39:13;;;;;;;0.90;0.90;;;;;;;1.76;100.00;98942.31;4914914;29;20413;-81
2022/09/27 04:41:43;;;;;;;0.90;0.90;;;;;;;1.81;100.00;98945.22;4916501;29;20048;-81
2022/09/27 04:44:11;;;;;;;0.93;0.93;;;;;;;1.89;100.00;98949.59;4898715;29;20520;-81
2022/09/27 04:46:41;;;;;;;0.90;0.90;;;;;;;1.98;100.00;98947.66;4914850;29;20055;-82
2022/09/27 04:49:09;;;;;;;0.90;0.90;;;;;;;2.07;100.00;98941.19;4898705;29;20453;-81
2022/09/27 04:51:37;;;;;;;0.80;0.80;;;;;;;2.19;100.00;98944.97;4883460;29;20059;-81
2022/09/27 04:54:04;;;;;;;0.90;0.90;;;;;;;2.31;100.00;98943.44;4914180;29;20424;-80
2022/09/27 04:56:47;;;;;;;0.90;0.90;;;;;;;2.45;100.00;98944.34;4882829;29;20471;-81
2022/09/27 04:59:15;;;;;;;0.90;0.90;;;;;;;2.54;100.00;98943.19;4888446;29;20048;-82
2022/09/27 05:01:44;;;;;;;1.00;1.00;;;;;;;2.72;100.00;98947.22;4883256;29;20052;-80
2022/09/27 05:04:11;;;;;;;0.90;0.90;;;;;;;2.93;100.00;98951.63;4904827;29;20535;-81
2022/09/27 05:06:42;;;;;;;0.90;0.90;;;;;;;3.06;100.00;98941.03;4895853;29;20048;-80
2022/09/27 05:09:23;;;;;;;0.90;0.90;;;;;;;3.22;100.00;98940.72;4879660;29;20064;-82
2022/09/27 05:11:55;;;;;;;0.90;0.90;;;;;;;3.36;100.00;98944.25;4882357;29;20077;-81
2022/09/27 05:14:25;;;;;;;0.88;0.88;;;;;;;3.48;100.00;98933.84;4908355;29;20056;-82
2022/09/27 05:17:17;;;;;;;0.90;0.90;;;;;;;3.67;100.00;98938.44;4894867;29;20136;-82
2022/09/27 05:20:04;;;;;;;0.80;0.80;;;;;;;3.87;100.00;98935.81;4905639;29;20056;-81
2022/09/27 05:22:39;;;;;;;0.90;0.90;;;;;;;4.05;100.00;98934.38;4888718;29;20400;-82
2022/09/27 05:25:07;;;;;;;0.90;0.90;;;;;;;4.22;100.00;98940.94;4896032;29;20064;-82
2022/09/27 05:27:34;;;;;;;0.85;0.85;;;;;;;4.41;100.00;98925.16;4897531;29;20096;-82
2022/09/27 05:30:01;;;;;;;0.80;0.80;;;;;;;4.63;100.00;98926.53;4902370;29;20053;-83
2022/09/27 05:32:35;;;;;;;0.90;0.90;;;;;;;4.80;100.00;98926.13;4882592;29;20061;-85
2022/09/27 05:35:23;;;;;;;0.90;0.90;;;;;;;4.93;100.00;98929.56;4870197;29;20415;-83
2022/09/27 05:37:52;;;;;;;0.80;0.80;;;;;;;5.08;100.00;98923.16;4561127;29;9999971;-84
2022/09/27 05:40:24;;;;;;;0.80;0.80;;;;;;;5.21;100.00;98923.09;4902514;29;20053;-80
2022/09/27 05:43:10;;;;;;;0.90;0.90;;;;;;;5.36;100.00;98922.84;4929865;29;20511;-82
2022/09/27 05:45:40;;;;;;;0.80;0.80;;;;;;;5.45;100.00;98929.59;4914392;29;20063;-82
2022/09/27 05:48:08;;;;;;;0.90;0.90;;;;;;;5.60;100.00;98924.78;4914638;29;20063;-82
2022/09/27 05:50:46;;;;;;;0.90;0.90;;;;;;;5.80;100.00;98926.53;4914666;29;20055;-83
2022/09/27 05:53:13;;;;;;;0.80;0.80;;;;;;;5.98;100.00;98910.59;4893913;29;20055;-82
2022/09/27 05:55:41;;;;;;;0.80;0.80;;;;;;;6.23;100.00;98915.16;4902971;29;20492;-81
2022/09/27 05:58:14;;;;;;;0.70;0.70;;;;;;;6.44;100.00;98912.06;4902737;29;20051;-81
2022/09/27 06:00:51;;;;;;;0.80;0.80;;;;;;;6.56;100.00;98911.34;4927358;29;20052;-80
2022/09/27 06:03:46;;;;;;;0.70;0.70;;;;;;;6.55;100.00;98915.06;4902866;29;20579;-82
2022/09/27 06:06:38;;;;;;;0.80;0.80;;;;;;;6.74;99.77;98914.06;4898577;29;20083;-83
2022/09/27 06:09:12;;;;;;;0.88;0.88;;;;;;;7.10;98.90;98910.56;4870293;29;20087;-82
2022/09/27 06:11:40;;;;;;;0.80;0.80;;;;;;;7.27;98.01;98910.78;4881859;29;20057;-83
2022/09/27 06:14:13;;;;;;;0.80;0.80;;;;;;;7.35;97.16;98910.47;4875159;29;20104;-82
2022/09/27 06:17:06;;;;;;;0.70;0.70;;;;;;;7.21;96.39;98903.63;4877542;29;20330;-83
2022/09/27 06:19:36;;;;;;;0.80;0.80;;;;;;;7.39;96.10;98913.53;4869349;29;20496;-82
2022/09/27 06:22:03;;;;;;;0.80;0.80;;;;;;;7.63;94.73;98913.66;4891453;29;20053;-82
2022/09/27 06:24:41;;;;;;;0.80;0.80;;;;;;;7.76;93.88;98916.13;4885517;29;20047;-83
2022/09/27 06:27:17;;;;;;;0.80;0.80;;;;;;;7.99;91.97;98920.78;4894224;29;20057;-83
2022/09/27 06:30:05;;;;;;;0.80;0.80;;;;;;;8.12;90.77;98927.81;4892187;29;20095;-87
2022/09/27 06:32:47;;;;;;;0.80;0.80;;;;;;;8.39;89.53;98926.38;4894856;29;20060;-83
2022/09/27 06:35:23;;;;;;;0.77;0.77;;;;;;;8.66;88.00;98913.28;4904976;29;20060;-81
2022/09/27 06:37:51;;;;;;;0.80;0.80;;;;;;;8.92;86.64;98916.56;4880536;29;20060;-82
2022/09/27 06:40:19;;;;;;;0.80;0.80;;;;;;;9.10;84.91;98913.72;4879039;29;20047;-83
2022/09/27 06:43:08;;;;;;;0.70;0.70;;;;;;;9.12;83.83;98918.88;4914189;29;20405;-83
2022/09/27 06:45:53;;;;;;;0.60;0.60;;;;;;;9.10;83.44;98918.28;4889533;29;20443;-82
2022/09/27 06:48:39;;;;;;;0.70;0.70;;;;;;;8.89;83.58;98906.25;4906577;29;20058;-84
2022/09/27 06:51:14;;;;;;;0.65;0.65;;;;;;;8.77;83.20;98913.53;4878679;29;20501;-84
2022/09/27 06:53:42;;;;;;;0.60;0.60;;;;;;;8.67;83.64;98903.34;4879473;29;20754;-84
2022/09/27 06:56:09;;;;;;;0.70;0.70;;;;;;;8.76;83.69;98907.34;4912435;29;20084;-82
2022/09/27 07:01:40;;;;;;;0.80;0.80;;;;;;;8.51;83.84;98898.66;4914589;29;20044;-85
2022/09/27 07:04:25;;;;;;;;;;;;;;;8.31;84.46;98899.81;4900769;29;20067;-83
2022/09/27 07:07:02;;;;;;;0.82;0.82;;;;;;;8.34;84.70;98899.31;4917336;29;20434;-84
2022/09/27 07:09:33;;;;;;;0.80;0.80;;;;;;;8.59;84.03;98895.63;4917268;29;20079;-83
2022/09/27 07:12:01;;;;;;;0.70;0.70;;;;;;;8.66;83.67;98899.84;4918503;29;20052;-83
2022/09/27 07:14:29;;;;;;;0.70;0.70;;;;;;;8.68;83.34;98903.13;4917475;29;20060;-83
2022/09/27 07:16:56;;;;;;;0.70;0.70;;;;;;;8.94;82.35;98898.31;4886397;29;20063;-82
2022/09/27 07:19:25;;;;;;;0.80;0.80;;;;;;;9.24;81.70;98891.91;4900774;29;20124;-83
2022/09/27 07:21:52;;;;;;;0.70;0.70;;;;;;;9.41;80.70;98891.97;4901785;29;20195;-83
2022/09/27 07:24:19;;;;;;;0.70;0.70;;;;;;;9.72;80.05;98893.38;4916781;29;20479;-84
2022/09/27 07:26:48;;;;;;;0.70;0.70;;;;;;;10.07;79.00;98889.66;4901267;29;20059;-83
2022/09/27 07:29:18;;;;;;;0.80;0.80;;;;;;;10.33;77.20;98890.91;4916645;29;20056;-84
2022/09/27 07:31:46;;;;;;;0.70;0.70;;;;;;;10.58;75.10;98895.91;4901358;29;20051;-84
2022/09/27 07:34:17;;;;;;;0.80;0.80;;;;;;;10.69;72.81;98892.31;4901481;29;20472;-83
2022/09/27 07:36:47;;;;;;;0.90;0.90;;;;;;;10.83;72.62;98898.16;4917079;29;20084;-83
2022/09/27 07:39:15;;;;;;;0.60;0.60;;;;;;;10.76;72.71;98892.94;4916089;29;20143;-83
2022/09/27 07:41:43;;;;;;;0.60;0.60;;;;;;;10.51;72.93;98900.69;4877797;29;20516;-84
2022/09/27 07:44:13;;;;;;;0.70;0.70;;;;;;;10.78;72.86;98898.09;4862469;29;20120;-84
2022/09/27 07:47:09;;;;;;;0.80;0.80;;;;;;;11.05;70.70;98892.78;4862556;29;20076;-83
2022/09/27 07:49:55;;;;;;;0.90;0.90;;;;;;;11.47;69.18;98892.22;4878136;29;20085;-84
2022/09/27 07:52:42;;;;;;;0.80;0.80;;;;;;;12.08;67.22;98892.06;4878353;29;20147;-81
2022/09/27 07:55:27;;;;;;;0.80;0.80;;;;;;;12.52;65.58;98898.09;4878003;29;20052;-83
2022/09/27 07:58:09;;;;;;;0.80;0.80;;;;;;;13.01;63.65;98897.03;4877864;29;20045;-83
2022/09/27 08:00:39;;;;;;;0.80;0.80;;;;;;;13.32;61.55;98897.19;4862116;29;20161;-83
2022/09/27 08:03:16;;;;;;;0.57;0.57;;;;;;;12.48;62.80;98899.69;4877781;29;20052;-82
2022/09/27 08:05:47;;;;;;;0.60;0.60;;;;;;;12.01;64.43;98905.78;4847507;29;20500;-83
2022/09/27 08:08:15;;;;;;;0.60;0.60;;;;;;;12.06;64.91;98902.31;4861834;29;20128;-84
2022/09/27 08:10:45;;;;;;;0.60;0.60;;;;;;;11.78;65.09;98897.97;4862043;29;20053;-83
2022/09/27 08:13:16;;;;;;;0.70;0.70;;;;;;;11.73;63.84;98897.91;4861781;29;20608;-82
2022/09/27 08:15:44;;;;;;;0.60;0.60;;;;;;;11.72;64.07;98899.78;4892755;29;20465;-85
2022/09/27 08:18:11;;;;;;;0.60;0.60;;;;;;;11.68;63.91;98896.78;4895009;29;20428;-83
2022/09/27 08:20:50;;;;;;;1.00;1.00;;;;;;;12.73;61.78;98901.75;4903786;29;20424;-83
2022/09/27 08:23:25;;;;;;;0.70;0.70;;;;;;;12.57;61.24;98894.59;4915460;29;20148;-83
2022/09/27 08:26:11;;;;;;;0.60;0.60;;;;;;;11.91;62.16;98898.38;4917656;29;20062;-84
2022/09/27 08:28:51;;;;;;;0.90;0.90;;;;;;;11.95;62.69;98893.31;4915741;29;20055;-84
2022/09/27 08:31:24;;;;;;;0.70;0.70;;;;;;;13.37;59.36;98889.13;4899668;29;20096;-83
2022/09/27 08:33:53;;;;;;;0.70;0.70;;;;;;;13.16;59.16;98899.00;4915203;29;20048;-83
2022/09/27 08:36:22;;;;;;;0.60;0.60;;;;;;;12.77;60.26;98893.94;4915156;29;20063;-84
2022/09/27 08:38:56;;;;;;;0.60;0.60;;;;;;;12.71;60.43;98889.53;4899978;29;20052;-83
2022/09/27 08:41:38;;;;;;;1.00;1.00;;;;;;;14.50;56.49;98892.78;4915591;29;20056;-84
2022/09/27 08:44:47;;;;;;;1.00;1.00;;;;;;;15.98;52.63;98881.41;4899638;29;20056;-83
2022/09/27 08:47:21;;;;;;;0.60;0.60;;;;;;;14.57;54.03;98878.97;4889826;29;20066;-83
2022/09/27 08:50:17;;;;;;;0.50;0.50;;;;;;;13.17;56.87;98876.28;4884210;29;20058;-83
2022/09/27 08:52:49;;;;;;;0.60;0.60;;;;;;;12.63;57.64;98881.91;4915461;29;20055;-84
2022/09/27 08:55:24;;;;;;;0.60;0.60;;;;;;;12.35;58.83;98887.41;4899943;29;20060;-84
2022/09/27 08:57:55;;;;;;;0.70;0.70;;;;;;;12.94;57.22;98885.63;4899693;29;20423;-84
2022/09/27 09:00:27;;;;;;;0.60;0.60;;;;;;;12.91;57.10;98892.41;4884203;29;20327;-84
2022/09/27 09:03:00;;;;;;;0.50;0.50;;;;;;;12.69;57.43;98884.41;4900753;29;20055;-84
2022/09/27 09:05:32;;;;;;;0.50;0.50;;;;;;;12.46;58.67;98885.59;4914465;29;20083;-84
2022/09/27 09:08:06;;;;;;;0.60;0.60;;;;;;;12.27;57.51;98879.75;4914932;29;20479;-82
2022/09/27 09:14:16;;;;;;;0.90;0.90;;;;;;;16.58;48.63;98866.75;4915173;29;20158;-83
2022/09/27 09:16:57;;;;;;;0.90;0.90;;;;;;;17.73;44.72;98866.78;4884515;29;20562;-84
2022/09/27 09:19:28;;;;;;;0.88;0.88;;;;;;;18.30;43.04;98862.09;4899160;29;20095;-84
2022/09/27 09:22:27;;;;;;;0.80;0.80;;;;;;;18.69;41.84;98857.34;4915200;29;20075;-84
2022/09/27 09:25:30;;;;;;;0.90;0.90;;;;;;;19.04;41.41;98851.22;4899092;29;20056;-83
2022/09/27 09:28:11;;;;;;;0.80;0.80;;;;;;;19.27;40.77;98857.59;4879007;29;20056;-85
2022/09/27 09:31:06;;;;;;;0.90;0.90;;;;;;;19.49;39.99;98853.28;4878243;29;20056;-85
2022/09/27 09:33:34;;;;;;;0.90;0.90;;;;;;;20.48;38.61;98853.44;4878827;29;20135;-84
2022/09/27 09:36:33;;;;;;;0.80;0.80;;;;;;;21.01;37.98;98852.59;4879206;29;20137;-85
2022/09/27 09:39:10;;;;;;;0.80;0.80;;;;;;;21.11;37.02;98852.31;4879230;29;20140;-84
2022/09/27 09:41:43;;;;;;;0.80;0.80;;;;;;;20.60;36.96;98850.16;4864002;29;20083;-84
2022/09/27 09:44:27;;;;;;;0.80;0.80;;;;;;;20.54;36.85;98857.69;4882386;29;20083;-84
2022/09/27 09:47:01;;;;;;;0.80;0.80;;;;;;;20.29;36.70;98851.72;4897540;29;20607;-83
2022/09/27 09:49:38;;;;;;;0.70;0.70;;;;;;;20.30;36.98;98856.06;4897647;29;20535;-85
2022/09/27 09:52:10;;;;;;;0.80;0.80;;;;;;;20.21;36.96;98846.22;4881523;29;20484;-84
2022/09/27 09:54:42;;;;;;;0.70;0.70;;;;;;;20.24;36.19;98845.56;4897572;29;20111;-84
2022/09/27 09:57:34;;;;;;;0.70;0.70;;;;;;;20.63;35.35;98846.78;4898359;29;20052;-85
2022/09/27 10:00:12;;;;;;;0.80;0.80;;;;;;;21.05;35.02;98845.38;4905454;29;20107;-83
2022/09/27 10:02:48;;;;;;;0.70;0.70;;;;;;;20.67;35.32;98842.31;4849485;29;20057;-85
2022/09/27 10:05:22;;;;;;;0.80;0.80;;;;;;;21.14;34.96;98827.00;4895267;29;20083;-84
2022/09/27 10:07:58;;;;;;;0.30;0.30;;;;;;;20.74;35.70;98832.50;4890313;29;20079;-85
2022/09/27 10:10:26;;;;;;;0.70;0.70;;;;;;;19.39;37.05;98837.91;4879315;29;20055;-85
2022/09/27 10:12:54;;;;;;;0.50;0.50;;;;;;;17.89;40.41;98849.09;4896706;29;20046;-85
2022/09/27 10:15:29;;;;;;;0.85;0.85;;;;;;;19.23;37.90;98837.41;4889364;29;20143;-84
2022/09/27 10:18:01;;;;;;;0.80;0.80;;;;;;;20.16;36.51;98833.44;4866367;29;20048;-88
2022/09/27 10:21:01;;;;;;;0.70;0.70;;;;;;;21.10;35.80;98845.22;4910128;29;20052;-84
2022/09/27 10:23:29;;;;;;;0.35;0.35;;;;;;;19.36;37.92;98838.50;4870545;29;20066;-87
2022/09/27 10:26:18;;;;;;;0.80;0.80;;;;;;;19.92;37.83;98834.53;4854527;29;20111;-83
2022/09/27 10:28:50;;;;;;;0.40;0.40;;;;;;;19.60;38.21;98840.22;4864567;29;20147;-85
2022/09/27 10:31:23;;;;;;;0.80;0.80;;;;;;;20.93;36.51;98835.00;4865374;29;20517;-85
2022/09/27 10:34:06;;;;;;;0.80;0.80;;;;;;;22.18;33.74;98826.28;4856611;29;20054;-84
2022/09/27 10:36:40;;;;;;;0.30;0.30;;;;;;;21.91;33.16;98827.44;4873118;29;20060;-86
2022/09/27 10:39:22;;;;;;;0.40;0.40;;;;;;;20.02;35.55;98824.47;4874408;29;20136;-85
2022/09/27 10:41:50;;;;;;;0.52;0.52;;;;;;;18.07;38.67;98806.50;4867186;29;20654;-85
2022/09/27 10:44:26;;;;;;;0.40;0.40;;;;;;;17.89;39.57;98821.00;4876254;29;20064;-85
2022/09/27 10:47:09;;;;;;;0.90;0.90;;;;;;;17.74;39.68;98827.47;4868302;29;20472;-84
2022/09/27 10:49:44;;;;;;;0.40;0.40;;;;;;;17.16;40.61;98820.34;4867416;29;20052;-85
2022/09/27 10:52:25;;;;;;;0.40;0.40;;;;;;;16.46;41.87;98824.38;4890477;29;20386;-84
2022/09/27 10:55:00;;;;;;;0.50;0.50;;;;;;;16.10;42.85;98826.59;4877840;29;20057;-85
2022/09/27 10:57:28;;;;;;;0.60;0.60;;;;;;;17.51;40.68;98826.44;4876909;29;20127;-86
2022/09/27 10:59:59;;;;;;;0.40;0.40;;;;;;;17.76;40.28;98822.53;4861220;29;20155;-84
2022/09/27 11:02:36;;;;;;;0.40;0.40;;;;;;;17.11;42.22;98825.84;4909326;29;20576;-84
2022/09/27 11:05:29;;;;;;;0.50;0.50;;;;;;;16.46;43.48;98812.69;4895713;29;20052;-84
2022/09/27 11:08:02;;;;;;;0.50;0.50;;;;;;;15.75;45.53;98814.09;4912614;29;20108;-85
2022/09/27 11:10:43;;;;;;;1.00;1.00;;;;;;;18.08;41.61;98801.81;4890810;29;20527;-85
2022/09/27 11:13:15;;;;;;;0.70;0.70;;;;;;;19.18;39.35;98806.63;4914255;29;20043;-85
2022/09/27 11:16:07;;;;;;;0.50;0.50;;;;;;;19.26;38.96;98811.38;4882247;29;20116;-84
2022/09/27 11:19:12;;;;;;;0.40;0.40;;;;;;;19.11;39.79;98806.22;4909405;29;20411;-85
2022/09/27 11:22:29;;;;;;;0.40;0.40;;;;;;;18.54;40.11;98803.78;4904201;29;20070;-85
2022/09/27 11:25:37;;;;;;;0.40;0.40;;;;;;;17.47;41.90;98801.66;4847187;29;20152;-86
2022/09/27 11:28:48;;;;;;;0.90;0.90;;;;;;;17.21;43.33;98806.63;4845263;29;20084;-85
2022/09/27 11:31:39;;;;;;;0.80;0.80;;;;;;;20.03;38.21;98796.78;4855390;29;20076;-83
2022/09/27 11:34:38;;;;;;;0.77;0.77;;;;;;;21.86;35.42;98798.19;4841754;29;20074;-83
2022/09/27 11:37:14;;;;;;;0.70;0.70;;;;;;;21.88;33.74;98789.63;4871936;29;20077;-84
2022/09/27 11:39:52;;;;;;;0.70;0.70;;;;;;;22.25;33.64;98785.38;4857619;29;20088;-84
2022/09/27 11:42:38;;;;;;;0.65;0.65;;;;;;;22.76;33.27;98779.22;4852511;29;20593;-85
2022/09/27 11:45:26;;;;;;;0.63;0.63;;;;;;;23.21;32.27;98768.50;4833726;29;20111;-83
2022/09/27 11:48:38;;;;;;;0.30;0.30;;;;;;;21.38;34.73;98779.09;4845519;29;20151;-85
2022/09/27 11:51:17;;;;;;;0.30;0.30;;;;;;;18.50;39.56;98780.88;4864023;29;20625;-86
2022/09/27 11:54:03;;;;;;;0.60;0.60;;;;;;;17.31;42.06;98781.16;4851349;29;20139;-85
2022/09/27 11:56:35;;;;;;;0.70;0.70;;;;;;;18.02;41.25;98782.00;4849619;29;20064;-84
2022/09/27 11:59:36;;;;;;;0.40;0.40;;;;;;;17.83;40.92;98784.78;4847895;29;20151;-83
2022/09/27 12:03:00;;;;;;;0.88;0.88;;;;;;;18.93;39.23;98773.22;4921138;29;20531;-85
2022/09/27 12:06:04;;;;;;;0.90;0.90;;;;;;;21.28;34.76;98771.97;4819632;29;20062;-85
2022/09/27 12:09:06;;;;;;;0.80;0.80;;;;;;;22.68;33.05;98761.63;4834897;29;20053;-85
2022/09/27 12:11:43;;;;;;;0.40;0.40;;;;;;;22.27;33.61;98752.09;4819251;29;20080;-85
2022/09/27 12:14:40;;;;;;;0.60;0.60;;;;;;;21.54;35.15;98763.78;4821121;29;20046;-85
2022/09/27 12:17:16;;;;;;;0.68;0.68;;;;;;;20.07;36.97;98755.84;4804484;29;20078;-84
2022/09/27 12:19:52;;;;;;;0.30;0.30;;;;;;;18.74;39.52;98764.31;4817527;29;20061;-84
2022/09/27 12:22:58;;;;;;;0.32;0.32;;;;;;;18.52;39.45;98762.28;4808727;29;20066;-87
2022/09/27 12:25:52;;;;;;;0.60;0.60;;;;;;;17.31;41.52;98756.59;4818883;29;20222;-83
2022/09/27 12:28:40;;;;;;;0.40;0.40;;;;;;;16.62;42.90;98756.91;4808983;29;20065;-85
2022/09/27 12:31:24;;;;;;;0.40;0.40;;;;;;;16.18;44.14;98754.38;4818564;29;20614;-85